sensor_id;sensor_type;location;lat;lon;timestamp;temperature;humidity
80216;DHT22;69532;37.974;23.708;2023-05-07T00:01:43;22.10;38.10
80216;DHT22;69532;37.974;23.708;2023-05-07T00:04:09;22.10;38.10
80216;DHT22;69532;37.974;23.708;2023-05-07T00:06:35;22.20;38.30
80216;DHT22;69532;37.974;23.708;2023-05-07T00:09:01;22.10;38.10
80216;DHT22;69532;37.974;23.708;2023-05-07T00:11:27;22.10;38.20
80216;DHT22;69532;37.974;23.708;2023-05-07T00:13:53;22.10;38.00
80216;DHT22;69532;37.974;23.708;2023-05-07T00:16:19;22.10;38.10
80216;DHT22;69532;37.974;23.708;2023-05-07T00:18:45;22.10;37.90
80216;DHT22;69532;37.974;23.708;2023-05-07T00:21:11;22.10;37.90
80216;DHT22;69532;37.974;23.708;2023-05-07T00:23:37;22.10;37.80
80216;DHT22;69532;37.974;23.708;2023-05-07T00:26:03;22.10;37.90
80216;DHT22;69532;37.974;23.708;2023-05-07T00:28:29;22.10;38.00
80216;DHT22;69532;37.974;23.708;2023-05-07T00:30:55;22.10;38.20
80216;DHT22;69532;37.974;23.708;2023-05-07T00:33:21;22.10;38.20
80216;DHT22;69532;37.974;23.708;2023-05-07T00:35:47;22.10;38.00
80216;DHT22;69532;37.974;23.708;2023-05-07T00:38:13;22.10;38.40
80216;DHT22;69532;37.974;23.708;2023-05-07T00:40:39;22.10;38.40
80216;DHT22;69532;37.974;23.708;2023-05-07T00:43:05;22.10;38.20
80216;DHT22;69532;37.974;23.708;2023-05-07T00:45:32;22.00;38.50
80216;DHT22;69532;37.974;23.708;2023-05-07T00:48:00;22.00;38.40
80216;DHT22;69532;37.974;23.708;2023-05-07T00:50:27;22.00;38.40
80216;DHT22;69532;37.974;23.708;2023-05-07T00:52:53;22.10;38.50
80216;DHT22;69532;37.974;23.708;2023-05-07T00:55:21;22.10;38.40
80216;DHT22;69532;37.974;23.708;2023-05-07T00:57:47;22.10;38.40
80216;DHT22;69532;37.974;23.708;2023-05-07T01:00:13;22.10;38.60
80216;DHT22;69532;37.974;23.708;2023-05-07T01:02:39;22.10;38.60
80216;DHT22;69532;37.974;23.708;2023-05-07T01:05:07;22.10;38.20
80216;DHT22;69532;37.974;23.708;2023-05-07T01:07:34;22.00;38.40
80216;DHT22;69532;37.974;23.708;2023-05-07T01:10:02;22.00;38.80
80216;DHT22;69532;37.974;23.708;2023-05-07T01:12:28;22.00;38.60
80216;DHT22;69532;37.974;23.708;2023-05-07T01:14:55;22.00;38.50
80216;DHT22;69532;37.974;23.708;2023-05-07T01:17:21;22.00;38.70
80216;DHT22;69532;37.974;23.708;2023-05-07T01:19:46;22.00;38.50
80216;DHT22;69532;37.974;23.708;2023-05-07T01:22:15;22.00;38.70
80216;DHT22;69532;37.974;23.708;2023-05-07T01:24:42;22.00;38.50
80216;DHT22;69532;37.974;23.708;2023-05-07T01:27:08;22.00;38.50
80216;DHT22;69532;37.974;23.708;2023-05-07T01:29:33;22.00;38.50
80216;DHT22;69532;37.974;23.708;2023-05-07T01:32:00;22.00;38.60
80216;DHT22;69532;37.974;23.708;2023-05-07T01:34:31;22.00;38.70
80216;DHT22;69532;37.974;23.708;2023-05-07T01:36:59;22.00;38.70
80216;DHT22;69532;37.974;23.708;2023-05-07T01:39:27;22.00;38.90
80216;DHT22;69532;37.974;23.708;2023-05-07T01:41:56;22.00;38.90
80216;DHT22;69532;37.974;23.708;2023-05-07T01:44:22;21.90;38.60
80216;DHT22;69532;37.974;23.708;2023-05-07T01:46:49;22.00;39.00
80216;DHT22;69532;37.974;23.708;2023-05-07T01:49:15;22.00;38.80
80216;DHT22;69532;37.974;23.708;2023-05-07T01:51:42;21.90;38.90
80216;DHT22;69532;37.974;23.708;2023-05-07T01:54:08;22.00;38.70
80216;DHT22;69532;37.974;23.708;2023-05-07T01:56:34;21.90;38.70
80216;DHT22;69532;37.974;23.708;2023-05-07T01:58:59;21.90;38.80
80216;DHT22;69532;37.974;23.708;2023-05-07T02:01:25;21.90;38.70
80216;DHT22;69532;37.974;23.708;2023-05-07T02:03:51;21.90;38.80
80216;DHT22;69532;37.974;23.708;2023-05-07T02:06:17;21.90;38.90
80216;DHT22;69532;37.974;23.708;2023-05-07T02:08:43;21.90;38.90
80216;DHT22;69532;37.974;23.708;2023-05-07T02:11:08;21.90;39.00
80216;DHT22;69532;37.974;23.708;2023-05-07T02:13:34;21.90;39.00
80216;DHT22;69532;37.974;23.708;2023-05-07T02:16:00;21.90;39.00
80216;DHT22;69532;37.974;23.708;2023-05-07T02:18:26;21.90;38.90
80216;DHT22;69532;37.974;23.708;2023-05-07T02:20:52;21.90;39.10
80216;DHT22;69532;37.974;23.708;2023-05-07T02:23:17;21.90;39.10
80216;DHT22;69532;37.974;23.708;2023-05-07T02:25:43;21.90;39.20
80216;DHT22;69532;37.974;23.708;2023-05-07T02:28:09;21.90;39.20
80216;DHT22;69532;37.974;23.708;2023-05-07T02:30:36;21.90;40.20
80216;DHT22;69532;37.974;23.708;2023-05-07T02:33:02;21.90;39.10
80216;DHT22;69532;37.974;23.708;2023-05-07T02:35:27;21.90;39.20
80216;DHT22;69532;37.974;23.708;2023-05-07T02:37:53;21.90;39.20
80216;DHT22;69532;37.974;23.708;2023-05-07T02:40:19;21.90;39.20
80216;DHT22;69532;37.974;23.708;2023-05-07T02:42:45;21.90;39.20
80216;DHT22;69532;37.974;23.708;2023-05-07T02:45:10;21.90;39.10
80216;DHT22;69532;37.974;23.708;2023-05-07T02:47:36;21.90;39.30
80216;DHT22;69532;37.974;23.708;2023-05-07T02:50:02;21.90;39.20
80216;DHT22;69532;37.974;23.708;2023-05-07T02:52:28;21.90;39.20
80216;DHT22;69532;37.974;23.708;2023-05-07T02:54:54;21.80;39.30
80216;DHT22;69532;37.974;23.708;2023-05-07T02:57:20;21.90;39.30
80216;DHT22;69532;37.974;23.708;2023-05-07T02:59:46;21.80;39.10
80216;DHT22;69532;37.974;23.708;2023-05-07T03:02:11;21.80;39.20
80216;DHT22;69532;37.974;23.708;2023-05-07T03:04:39;21.80;39.30
80216;DHT22;69532;37.974;23.708;2023-05-07T03:07:05;21.80;39.20
80216;DHT22;69532;37.974;23.708;2023-05-07T03:09:30;21.80;39.40
80216;DHT22;69532;37.974;23.708;2023-05-07T03:11:56;21.80;39.40
80216;DHT22;69532;37.974;23.708;2023-05-07T03:14:22;21.80;39.40
80216;DHT22;69532;37.974;23.708;2023-05-07T03:16:49;21.70;39.30
80216;DHT22;69532;37.974;23.708;2023-05-07T03:19:15;21.70;39.50
80216;DHT22;69532;37.974;23.708;2023-05-07T03:21:41;21.70;39.50
80216;DHT22;69532;37.974;23.708;2023-05-07T03:24:06;21.70;39.30
80216;DHT22;69532;37.974;23.708;2023-05-07T03:26:32;21.70;39.40
80216;DHT22;69532;37.974;23.708;2023-05-07T03:28:58;21.70;39.50
80216;DHT22;69532;37.974;23.708;2023-05-07T03:31:24;21.70;39.50
80216;DHT22;69532;37.974;23.708;2023-05-07T03:33:53;21.70;40.60
80216;DHT22;69532;37.974;23.708;2023-05-07T03:36:20;21.70;39.50
80216;DHT22;69532;37.974;23.708;2023-05-07T03:38:46;21.70;39.60
80216;DHT22;69532;37.974;23.708;2023-05-07T03:41:12;21.70;39.50
80216;DHT22;69532;37.974;23.708;2023-05-07T03:43:38;21.70;39.50
80216;DHT22;69532;37.974;23.708;2023-05-07T03:46:03;21.70;39.60
80216;DHT22;69532;37.974;23.708;2023-05-07T03:48:29;21.70;39.60
80216;DHT22;69532;37.974;23.708;2023-05-07T03:50:57;21.70;39.50
80216;DHT22;69532;37.974;23.708;2023-05-07T03:53:22;21.70;39.60
80216;DHT22;69532;37.974;23.708;2023-05-07T03:55:48;21.70;39.50
80216;DHT22;69532;37.974;23.708;2023-05-07T03:58:14;21.70;39.40
80216;DHT22;69532;37.974;23.708;2023-05-07T04:00:40;21.70;39.50
80216;DHT22;69532;37.974;23.708;2023-05-07T04:03:06;21.70;39.60
80216;DHT22;69532;37.974;23.708;2023-05-07T04:05:32;21.70;39.50
80216;DHT22;69532;37.974;23.708;2023-05-07T04:07:58;21.70;39.40
80216;DHT22;69532;37.974;23.708;2023-05-07T04:10:25;21.80;39.40
80216;DHT22;69532;37.974;23.708;2023-05-07T04:12:50;21.80;39.20
80216;DHT22;69532;37.974;23.708;2023-05-07T04:15:16;21.90;39.20
80216;DHT22;69532;37.974;23.708;2023-05-07T04:17:42;21.90;39.00
80216;DHT22;69532;37.974;23.708;2023-05-07T04:20:09;22.00;39.00
80216;DHT22;69532;37.974;23.708;2023-05-07T04:22:36;22.00;38.80
80216;DHT22;69532;37.974;23.708;2023-05-07T04:25:02;22.10;38.60
80216;DHT22;69532;37.974;23.708;2023-05-07T04:27:28;22.20;38.40
80216;DHT22;69532;37.974;23.708;2023-05-07T04:29:54;22.30;38.20
80216;DHT22;69532;37.974;23.708;2023-05-07T04:32:22;22.40;37.90
80216;DHT22;69532;37.974;23.708;2023-05-07T04:34:47;22.50;37.60
80216;DHT22;69532;37.974;23.708;2023-05-07T04:37:13;22.60;37.50
80216;DHT22;69532;37.974;23.708;2023-05-07T04:39:39;22.70;37.40
80216;DHT22;69532;37.974;23.708;2023-05-07T04:42:04;22.80;37.20
80216;DHT22;69532;37.974;23.708;2023-05-07T04:44:32;22.80;36.90
80216;DHT22;69532;37.974;23.708;2023-05-07T04:46:59;22.90;36.70
80216;DHT22;69532;37.974;23.708;2023-05-07T04:49:25;23.00;36.60
80216;DHT22;69532;37.974;23.708;2023-05-07T04:51:51;23.10;36.40
80216;DHT22;69532;37.974;23.708;2023-05-07T04:54:17;23.10;36.20
80216;DHT22;69532;37.974;23.708;2023-05-07T04:56:42;23.30;36.00
80216;DHT22;69532;37.974;23.708;2023-05-07T04:59:08;23.30;35.90
80216;DHT22;69532;37.974;23.708;2023-05-07T05:01:34;23.40;35.70
80216;DHT22;69532;37.974;23.708;2023-05-07T05:04:00;23.40;35.60
80216;DHT22;69532;37.974;23.708;2023-05-07T05:06:26;23.50;35.40
80216;DHT22;69532;37.974;23.708;2023-05-07T05:08:51;23.60;35.20
80216;DHT22;69532;37.974;23.708;2023-05-07T05:11:17;23.60;35.10
80216;DHT22;69532;37.974;23.708;2023-05-07T05:13:43;23.70;34.90
80216;DHT22;69532;37.974;23.708;2023-05-07T05:16:08;23.80;34.80
80216;DHT22;69532;37.974;23.708;2023-05-07T05:18:34;23.80;34.60
80216;DHT22;69532;37.974;23.708;2023-05-07T05:21:00;23.90;34.50
80216;DHT22;69532;37.974;23.708;2023-05-07T05:23:26;24.00;34.40
80216;DHT22;69532;37.974;23.708;2023-05-07T05:25:56;24.00;34.20
80216;DHT22;69532;37.974;23.708;2023-05-07T05:28:23;24.10;34.10
80216;DHT22;69532;37.974;23.708;2023-05-07T05:30:49;24.10;34.10
80216;DHT22;69532;37.974;23.708;2023-05-07T05:33:15;24.10;34.00
80216;DHT22;69532;37.974;23.708;2023-05-07T05:35:41;24.20;33.90
80216;DHT22;69532;37.974;23.708;2023-05-07T05:38:06;24.30;33.90
80216;DHT22;69532;37.974;23.708;2023-05-07T05:40:32;24.30;33.70
80216;DHT22;69532;37.974;23.708;2023-05-07T05:42:59;24.40;33.60
80216;DHT22;69532;37.974;23.708;2023-05-07T05:45:24;24.40;33.50
80216;DHT22;69532;37.974;23.708;2023-05-07T05:47:50;24.50;33.50
80216;DHT22;69532;37.974;23.708;2023-05-07T05:50:16;24.50;33.30
80216;DHT22;69532;37.974;23.708;2023-05-07T05:52:42;24.50;33.20
80216;DHT22;69532;37.974;23.708;2023-05-07T05:55:08;24.60;33.20
80216;DHT22;69532;37.974;23.708;2023-05-07T05:57:34;24.60;33.10
80216;DHT22;69532;37.974;23.708;2023-05-07T06:00:00;24.60;34.10
80216;DHT22;69532;37.974;23.708;2023-05-07T06:02:26;24.70;33.00
80216;DHT22;69532;37.974;23.708;2023-05-07T06:04:52;24.70;32.80
80216;DHT22;69532;37.974;23.708;2023-05-07T06:07:18;24.80;32.80
80216;DHT22;69532;37.974;23.708;2023-05-07T06:09:43;24.80;32.70
80216;DHT22;69532;37.974;23.708;2023-05-07T06:12:09;24.80;32.60
80216;DHT22;69532;37.974;23.708;2023-05-07T06:14:35;24.90;32.60
80216;DHT22;69532;37.974;23.708;2023-05-07T06:17:01;24.90;32.50
80216;DHT22;69532;37.974;23.708;2023-05-07T06:19:26;24.90;32.40
80216;DHT22;69532;37.974;23.708;2023-05-07T06:21:53;25.00;32.40
80216;DHT22;69532;37.974;23.708;2023-05-07T06:24:19;25.00;32.40
80216;DHT22;69532;37.974;23.708;2023-05-07T06:26:45;25.00;32.40
80216;DHT22;69532;37.974;23.708;2023-05-07T06:29:10;25.00;32.30
80216;DHT22;69532;37.974;23.708;2023-05-07T06:31:36;25.00;33.20
80216;DHT22;69532;37.974;23.708;2023-05-07T06:34:02;25.10;32.20
80216;DHT22;69532;37.974;23.708;2023-05-07T06:36:28;25.10;32.00
80216;DHT22;69532;37.974;23.708;2023-05-07T06:38:54;25.10;32.00
80216;DHT22;69532;37.974;23.708;2023-05-07T06:41:20;25.10;31.90
80216;DHT22;69532;37.974;23.708;2023-05-07T06:43:46;25.20;31.80
80216;DHT22;69532;37.974;23.708;2023-05-07T06:46:11;25.10;31.70
80216;DHT22;69532;37.974;23.708;2023-05-07T06:48:37;25.10;31.70
80216;DHT22;69532;37.974;23.708;2023-05-07T06:51:03;25.10;31.50
80216;DHT22;69532;37.974;23.708;2023-05-07T06:53:28;25.10;31.50
80216;DHT22;69532;37.974;23.708;2023-05-07T06:55:56;25.20;31.50
80216;DHT22;69532;37.974;23.708;2023-05-07T06:58:22;25.10;31.40
80216;DHT22;69532;37.974;23.708;2023-05-07T07:00:48;25.10;31.30
80216;DHT22;69532;37.974;23.708;2023-05-07T07:03:14;25.10;31.30
80216;DHT22;69532;37.974;23.708;2023-05-07T07:05:43;25.20;31.30
80216;DHT22;69532;37.974;23.708;2023-05-07T07:08:09;25.20;31.10
80216;DHT22;69532;37.974;23.708;2023-05-07T07:10:35;25.20;31.20
80216;DHT22;69532;37.974;23.708;2023-05-07T07:13:01;25.10;31.10
80216;DHT22;69532;37.974;23.708;2023-05-07T07:15:27;25.10;31.00
80216;DHT22;69532;37.974;23.708;2023-05-07T07:17:52;25.10;31.00
80216;DHT22;69532;37.974;23.708;2023-05-07T07:20:18;25.10;31.00
80216;DHT22;69532;37.974;23.708;2023-05-07T07:22:44;25.10;31.00
80216;DHT22;69532;37.974;23.708;2023-05-07T07:25:09;25.10;30.90
80216;DHT22;69532;37.974;23.708;2023-05-07T07:27:36;25.10;30.90
80216;DHT22;69532;37.974;23.708;2023-05-07T07:30:02;25.10;30.90
80216;DHT22;69532;37.974;23.708;2023-05-07T07:32:28;25.10;30.80
80216;DHT22;69532;37.974;23.708;2023-05-07T07:34:54;25.10;30.70
80216;DHT22;69532;37.974;23.708;2023-05-07T07:37:20;25.10;30.70
80216;DHT22;69532;37.974;23.708;2023-05-07T07:39:45;25.10;30.60
80216;DHT22;69532;37.974;23.708;2023-05-07T07:42:11;25.10;30.60
80216;DHT22;69532;37.974;23.708;2023-05-07T07:44:37;25.10;30.50
80216;DHT22;69532;37.974;23.708;2023-05-07T07:47:05;25.10;30.50
80216;DHT22;69532;37.974;23.708;2023-05-07T07:49:30;25.10;30.50
80216;DHT22;69532;37.974;23.708;2023-05-07T07:51:56;25.10;30.50
80216;DHT22;69532;37.974;23.708;2023-05-07T07:54:24;25.10;30.40
80216;DHT22;69532;37.974;23.708;2023-05-07T07:56:52;25.10;30.40
80216;DHT22;69532;37.974;23.708;2023-05-07T07:59:17;25.10;30.40
80216;DHT22;69532;37.974;23.708;2023-05-07T08:01:44;25.10;30.30
80216;DHT22;69532;37.974;23.708;2023-05-07T08:04:10;25.10;30.20
80216;DHT22;69532;37.974;23.708;2023-05-07T08:06:36;25.10;30.20
80216;DHT22;69532;37.974;23.708;2023-05-07T08:09:02;25.10;30.20
80216;DHT22;69532;37.974;23.708;2023-05-07T08:11:28;25.10;30.10
80216;DHT22;69532;37.974;23.708;2023-05-07T08:13:54;25.10;30.10
80216;DHT22;69532;37.974;23.708;2023-05-07T08:16:20;25.10;30.10
80216;DHT22;69532;37.974;23.708;2023-05-07T08:18:46;25.10;30.10
80216;DHT22;69532;37.974;23.708;2023-05-07T08:21:12;25.10;30.10
80216;DHT22;69532;37.974;23.708;2023-05-07T08:23:37;25.10;30.00
80216;DHT22;69532;37.974;23.708;2023-05-07T08:26:03;25.10;30.10
80216;DHT22;69532;37.974;23.708;2023-05-07T08:28:29;25.10;30.00
80216;DHT22;69532;37.974;23.708;2023-05-07T08:30:55;25.10;30.00
80216;DHT22;69532;37.974;23.708;2023-05-07T08:33:22;25.10;30.00
80216;DHT22;69532;37.974;23.708;2023-05-07T08:35:47;25.10;30.00
80216;DHT22;69532;37.974;23.708;2023-05-07T08:38:13;25.10;30.00
80216;DHT22;69532;37.974;23.708;2023-05-07T08:40:39;25.00;30.00
80216;DHT22;69532;37.974;23.708;2023-05-07T08:43:07;25.10;30.00
80216;DHT22;69532;37.974;23.708;2023-05-07T08:45:33;25.10;30.00
80216;DHT22;69532;37.974;23.708;2023-05-07T08:48:02;25.10;30.00
80216;DHT22;69532;37.974;23.708;2023-05-07T08:50:28;25.10;30.00
80216;DHT22;69532;37.974;23.708;2023-05-07T08:52:54;25.10;30.00
80216;DHT22;69532;37.974;23.708;2023-05-07T08:55:22;25.00;30.00
80216;DHT22;69532;37.974;23.708;2023-05-07T08:57:47;25.00;30.10
80216;DHT22;69532;37.974;23.708;2023-05-07T09:00:15;25.00;30.00
80216;DHT22;69532;37.974;23.708;2023-05-07T09:02:41;25.00;30.10
80216;DHT22;69532;37.974;23.708;2023-05-07T09:05:07;25.00;30.10
80216;DHT22;69532;37.974;23.708;2023-05-07T09:07:33;25.00;30.10
80216;DHT22;69532;37.974;23.708;2023-05-07T09:10:02;25.00;30.10
80216;DHT22;69532;37.974;23.708;2023-05-07T09:12:27;25.00;30.10
80216;DHT22;69532;37.974;23.708;2023-05-07T09:14:53;25.00;30.20
80216;DHT22;69532;37.974;23.708;2023-05-07T09:17:19;25.00;30.20
80216;DHT22;69532;37.974;23.708;2023-05-07T09:19:45;25.00;30.20
80216;DHT22;69532;37.974;23.708;2023-05-07T09:22:11;25.00;30.20
80216;DHT22;69532;37.974;23.708;2023-05-07T09:24:38;25.00;30.30
80216;DHT22;69532;37.974;23.708;2023-05-07T09:27:04;25.00;30.30
80216;DHT22;69532;37.974;23.708;2023-05-07T09:29:31;24.90;30.30
80216;DHT22;69532;37.974;23.708;2023-05-07T09:32:07;25.00;30.30
80216;DHT22;69532;37.974;23.708;2023-05-07T09:34:33;25.00;30.30
80216;DHT22;69532;37.974;23.708;2023-05-07T09:37:00;25.00;30.30
80216;DHT22;69532;37.974;23.708;2023-05-07T09:39:26;24.90;30.30
80216;DHT22;69532;37.974;23.708;2023-05-07T09:42:03;25.00;30.20
80216;DHT22;69532;37.974;23.708;2023-05-07T09:44:31;24.90;30.30
80216;DHT22;69532;37.974;23.708;2023-05-07T09:46:59;24.90;30.30
80216;DHT22;69532;37.974;23.708;2023-05-07T09:49:29;24.90;30.30
80216;DHT22;69532;37.974;23.708;2023-05-07T09:51:56;25.00;30.20
80216;DHT22;69532;37.974;23.708;2023-05-07T09:54:24;24.90;30.20
80216;DHT22;69532;37.974;23.708;2023-05-07T09:56:52;24.90;30.10
80216;DHT22;69532;37.974;23.708;2023-05-07T09:59:18;24.90;30.00
80216;DHT22;69532;37.974;23.708;2023-05-07T10:01:45;24.90;30.10
80216;DHT22;69532;37.974;23.708;2023-05-07T10:04:12;24.90;30.10
80216;DHT22;69532;37.974;23.708;2023-05-07T10:06:38;24.90;30.10
80216;DHT22;69532;37.974;23.708;2023-05-07T10:09:04;24.90;30.10
80216;DHT22;69532;37.974;23.708;2023-05-07T10:11:34;24.90;30.00
80216;DHT22;69532;37.974;23.708;2023-05-07T10:14:04;24.90;30.10
80216;DHT22;69532;37.974;23.708;2023-05-07T10:16:34;24.90;30.00
80216;DHT22;69532;37.974;23.708;2023-05-07T10:19:05;24.90;30.10
80216;DHT22;69532;37.974;23.708;2023-05-07T10:21:35;24.90;30.10
80216;DHT22;69532;37.974;23.708;2023-05-07T10:24:08;24.90;30.10
80216;DHT22;69532;37.974;23.708;2023-05-07T10:26:42;24.90;30.20
80216;DHT22;69532;37.974;23.708;2023-05-07T10:32:14;24.90;30.00
80216;DHT22;69532;37.974;23.708;2023-05-07T10:34:47;24.90;30.20
80216;DHT22;69532;37.974;23.708;2023-05-07T10:37:14;24.80;30.10
80216;DHT22;69532;37.974;23.708;2023-05-07T10:39:40;24.80;30.10
80216;DHT22;69532;37.974;23.708;2023-05-07T10:42:13;24.80;30.20
80216;DHT22;69532;37.974;23.708;2023-05-07T10:44:40;24.80;30.10
80216;DHT22;69532;37.974;23.708;2023-05-07T10:47:16;24.80;30.10
80216;DHT22;69532;37.974;23.708;2023-05-07T10:52:17;24.80;30.00
80216;DHT22;69532;37.974;23.708;2023-05-07T10:54:44;24.90;30.20
80216;DHT22;69532;37.974;23.708;2023-05-07T10:59:57;24.80;30.10
80216;DHT22;69532;37.974;23.708;2023-05-07T11:02:23;24.80;30.10
80216;DHT22;69532;37.974;23.708;2023-05-07T11:05:22;24.80;30.10
80216;DHT22;69532;37.974;23.708;2023-05-07T11:08:04;24.90;30.00
80216;DHT22;69532;37.974;23.708;2023-05-07T11:10:54;24.80;30.00
80216;DHT22;69532;37.974;23.708;2023-05-07T11:16:24;24.80;30.20
80216;DHT22;69532;37.974;23.708;2023-05-07T11:18:52;24.80;30.10
80216;DHT22;69532;37.974;23.708;2023-05-07T11:21:40;24.80;30.10
80216;DHT22;69532;37.974;23.708;2023-05-07T11:24:08;24.80;30.10
80216;DHT22;69532;37.974;23.708;2023-05-07T11:26:48;24.80;30.20
80216;DHT22;69532;37.974;23.708;2023-05-07T11:29:20;24.80;30.00
80216;DHT22;69532;37.974;23.708;2023-05-07T11:31:50;24.80;30.00
80216;DHT22;69532;37.974;23.708;2023-05-07T11:34:24;24.80;30.10
80216;DHT22;69532;37.974;23.708;2023-05-07T11:36:51;24.80;30.10
80216;DHT22;69532;37.974;23.708;2023-05-07T11:39:26;24.70;30.00
80216;DHT22;69532;37.974;23.708;2023-05-07T11:41:52;24.80;30.10
80216;DHT22;69532;37.974;23.708;2023-05-07T11:44:18;24.80;30.10
80216;DHT22;69532;37.974;23.708;2023-05-07T11:46:44;24.80;30.10
80216;DHT22;69532;37.974;23.708;2023-05-07T11:49:10;24.80;30.00
80216;DHT22;69532;37.974;23.708;2023-05-07T11:51:36;24.80;30.00
80216;DHT22;69532;37.974;23.708;2023-05-07T11:54:05;24.80;30.00
80216;DHT22;69532;37.974;23.708;2023-05-07T11:56:34;24.80;30.00
80216;DHT22;69532;37.974;23.708;2023-05-07T11:59:00;24.80;30.00
80216;DHT22;69532;37.974;23.708;2023-05-07T12:01:26;24.80;30.00
80216;DHT22;69532;37.974;23.708;2023-05-07T12:03:52;24.70;30.00
80216;DHT22;69532;37.974;23.708;2023-05-07T12:06:18;24.70;30.00
80216;DHT22;69532;37.974;23.708;2023-05-07T12:08:44;24.80;30.10
80216;DHT22;69532;37.974;23.708;2023-05-07T12:11:14;24.80;30.10
80216;DHT22;69532;37.974;23.708;2023-05-07T12:13:41;24.80;30.00
80216;DHT22;69532;37.974;23.708;2023-05-07T12:16:07;24.70;30.00
80216;DHT22;69532;37.974;23.708;2023-05-07T12:18:35;24.70;30.00
80216;DHT22;69532;37.974;23.708;2023-05-07T12:21:01;24.70;30.10
80216;DHT22;69532;37.974;23.708;2023-05-07T12:23:27;24.80;30.20
80216;DHT22;69532;37.974;23.708;2023-05-07T12:25:53;24.70;30.00
80216;DHT22;69532;37.974;23.708;2023-05-07T12:28:19;24.80;30.10
80216;DHT22;69532;37.974;23.708;2023-05-07T12:30:50;24.80;30.00
80216;DHT22;69532;37.974;23.708;2023-05-07T12:33:25;24.70;30.00
80216;DHT22;69532;37.974;23.708;2023-05-07T12:35:53;24.80;30.10
80216;DHT22;69532;37.974;23.708;2023-05-07T12:38:19;24.70;30.00
80216;DHT22;69532;37.974;23.708;2023-05-07T12:40:47;24.70;30.10
80216;DHT22;69532;37.974;23.708;2023-05-07T12:43:17;24.70;30.00
80216;DHT22;69532;37.974;23.708;2023-05-07T12:45:44;24.70;30.20
80216;DHT22;69532;37.974;23.708;2023-05-07T12:48:10;24.70;30.20
80216;DHT22;69532;37.974;23.708;2023-05-07T12:50:36;24.70;30.00
80216;DHT22;69532;37.974;23.708;2023-05-07T12:53:06;24.70;30.10
80216;DHT22;69532;37.974;23.708;2023-05-07T12:55:47;24.70;30.10
80216;DHT22;69532;37.974;23.708;2023-05-07T12:58:21;24.70;30.10
80216;DHT22;69532;37.974;23.708;2023-05-07T13:00:51;24.70;30.10
80216;DHT22;69532;37.974;23.708;2023-05-07T13:03:28;24.70;30.00
80216;DHT22;69532;37.974;23.708;2023-05-07T13:06:04;24.70;30.00
80216;DHT22;69532;37.974;23.708;2023-05-07T13:08:36;24.70;30.00
80216;DHT22;69532;37.974;23.708;2023-05-07T13:11:03;24.70;30.00
80216;DHT22;69532;37.974;23.708;2023-05-07T13:13:31;24.70;30.10
80216;DHT22;69532;37.974;23.708;2023-05-07T13:15:57;24.70;30.00
80216;DHT22;69532;37.974;23.708;2023-05-07T13:18:24;24.70;30.00
80216;DHT22;69532;37.974;23.708;2023-05-07T13:20:51;24.70;30.00
80216;DHT22;69532;37.974;23.708;2023-05-07T13:23:17;24.70;30.00
80216;DHT22;69532;37.974;23.708;2023-05-07T13:25:43;24.60;30.00
80216;DHT22;69532;37.974;23.708;2023-05-07T13:28:09;24.70;30.00
80216;DHT22;69532;37.974;23.708;2023-05-07T13:30:34;24.70;30.00
80216;DHT22;69532;37.974;23.708;2023-05-07T13:33:00;24.70;30.00
80216;DHT22;69532;37.974;23.708;2023-05-07T13:35:26;24.70;30.00
80216;DHT22;69532;37.974;23.708;2023-05-07T13:37:52;24.70;30.00
80216;DHT22;69532;37.974;23.708;2023-05-07T13:40:18;24.60;30.00
80216;DHT22;69532;37.974;23.708;2023-05-07T13:42:44;24.60;30.00
80216;DHT22;69532;37.974;23.708;2023-05-07T13:45:10;24.60;30.00
80216;DHT22;69532;37.974;23.708;2023-05-07T13:47:42;24.70;30.00
80216;DHT22;69532;37.974;23.708;2023-05-07T13:50:09;24.60;30.00
80216;DHT22;69532;37.974;23.708;2023-05-07T13:52:35;24.60;30.00
80216;DHT22;69532;37.974;23.708;2023-05-07T13:55:00;24.60;30.00
80216;DHT22;69532;37.974;23.708;2023-05-07T13:57:26;24.60;30.00
80216;DHT22;69532;37.974;23.708;2023-05-07T13:59:52;24.60;30.00
80216;DHT22;69532;37.974;23.708;2023-05-07T14:02:17;24.60;30.00
80216;DHT22;69532;37.974;23.708;2023-05-07T14:04:43;24.60;30.00
80216;DHT22;69532;37.974;23.708;2023-05-07T14:07:10;24.60;29.90
80216;DHT22;69532;37.974;23.708;2023-05-07T14:09:36;24.60;30.00
80216;DHT22;69532;37.974;23.708;2023-05-07T14:12:01;24.60;30.00
80216;DHT22;69532;37.974;23.708;2023-05-07T14:14:27;24.50;29.90
80216;DHT22;69532;37.974;23.708;2023-05-07T14:16:53;24.60;30.00
80216;DHT22;69532;37.974;23.708;2023-05-07T14:19:19;24.60;30.00
80216;DHT22;69532;37.974;23.708;2023-05-07T14:21:44;24.50;29.90
80216;DHT22;69532;37.974;23.708;2023-05-07T14:24:10;24.50;30.00
80216;DHT22;69532;37.974;23.708;2023-05-07T14:26:36;24.50;29.90
80216;DHT22;69532;37.974;23.708;2023-05-07T14:29:02;24.60;30.00
80216;DHT22;69532;37.974;23.708;2023-05-07T14:31:28;24.60;29.90
80216;DHT22;69532;37.974;23.708;2023-05-07T14:33:54;24.50;29.80
80216;DHT22;69532;37.974;23.708;2023-05-07T14:36:20;24.50;29.90
80216;DHT22;69532;37.974;23.708;2023-05-07T14:38:47;24.50;30.00
80216;DHT22;69532;37.974;23.708;2023-05-07T14:41:12;24.50;30.00
80216;DHT22;69532;37.974;23.708;2023-05-07T14:43:38;24.50;29.90
80216;DHT22;69532;37.974;23.708;2023-05-07T14:46:04;24.50;30.00
80216;DHT22;69532;37.974;23.708;2023-05-07T14:48:29;24.50;29.90
80216;DHT22;69532;37.974;23.708;2023-05-07T14:50:55;24.50;30.80
80216;DHT22;69532;37.974;23.708;2023-05-07T14:53:22;24.50;29.90
80216;DHT22;69532;37.974;23.708;2023-05-07T14:55:48;24.50;29.90
80216;DHT22;69532;37.974;23.708;2023-05-07T14:58:14;24.50;29.90
80216;DHT22;69532;37.974;23.708;2023-05-07T15:00:39;24.50;29.90
80216;DHT22;69532;37.974;23.708;2023-05-07T15:03:07;24.50;29.80
80216;DHT22;69532;37.974;23.708;2023-05-07T15:05:33;24.50;29.80
80216;DHT22;69532;37.974;23.708;2023-05-07T15:07:59;24.50;29.80
80216;DHT22;69532;37.974;23.708;2023-05-07T15:10:26;24.50;29.80
80216;DHT22;69532;37.974;23.708;2023-05-07T15:12:51;24.50;29.80
80216;DHT22;69532;37.974;23.708;2023-05-07T15:15:17;24.50;29.80
80216;DHT22;69532;37.974;23.708;2023-05-07T15:17:43;24.50;29.80
80216;DHT22;69532;37.974;23.708;2023-05-07T15:20:09;24.50;29.80
80216;DHT22;69532;37.974;23.708;2023-05-07T15:22:35;24.40;29.80
80216;DHT22;69532;37.974;23.708;2023-05-07T15:25:03;24.40;29.80